sensor_id;sensor_type;location;lat;lon;timestamp;P1;durP1;ratioP1;P2;durP2;ratioP2
42018;SDS011;27703;51.980;5.848;2024-03-08T00:01:00;25.85;;;16.55;;
42018;SDS011;27703;51.980;5.848;2024-03-08T00:03:26;26.30;;;15.32;;
42018;SDS011;27703;51.980;5.848;2024-03-08T00:05:53;30.08;;;16.13;;
42018;SDS011;27703;51.980;5.848;2024-03-08T00:08:19;28.67;;;16.70;;
42018;SDS011;27703;51.980;5.848;2024-03-08T00:10:45;29.90;;;15.48;;
42018;SDS011;27703;51.980;5.848;2024-03-08T00:13:11;29.52;;;16.40;;
42018;SDS011;27703;51.980;5.848;2024-03-08T00:15:36;31.00;;;16.92;;
42018;SDS011;27703;51.980;5.848;2024-03-08T00:18:02;24.65;;;14.55;;
42018;SDS011;27703;51.980;5.848;2024-03-08T00:20:27;24.67;;;14.13;;
42018;SDS011;27703;51.980;5.848;2024-03-08T00:22:53;24.88;;;14.38;;
42018;SDS011;27703;51.980;5.848;2024-03-08T00:25:18;24.63;;;14.75;;
42018;SDS011;27703;51.980;5.848;2024-03-08T00:27:44;29.50;;;16.27;;
42018;SDS011;27703;51.980;5.848;2024-03-08T00:30:10;27.20;;;14.70;;
42018;SDS011;27703;51.980;5.848;2024-03-08T00:32:38;26.67;;;14.30;;
42018;SDS011;27703;51.980;5.848;2024-03-08T00:35:04;29.92;;;16.02;;
42018;SDS011;27703;51.980;5.848;2024-03-08T00:37:32;27.05;;;16.05;;
42018;SDS011;27703;51.980;5.848;2024-03-08T00:39:59;28.23;;;16.77;;
42018;SDS011;27703;51.980;5.848;2024-03-08T00:42:24;26.05;;;16.25;;
42018;SDS011;27703;51.980;5.848;2024-03-08T00:44:50;24.02;;;14.85;;
42018;SDS011;27703;51.980;5.848;2024-03-08T00:47:15;26.40;;;16.13;;
42018;SDS011;27703;51.980;5.848;2024-03-08T00:49:41;28.20;;;15.52;;
42018;SDS011;27703;51.980;5.848;2024-03-08T00:52:07;31.10;;;15.50;;
42018;SDS011;27703;51.980;5.848;2024-03-08T00:54:33;25.17;;;14.82;;
42018;SDS011;27703;51.980;5.848;2024-03-08T00:57:01;32.70;;;17.08;;
42018;SDS011;27703;51.980;5.848;2024-03-08T00:59:28;24.58;;;15.52;;
42018;SDS011;27703;51.980;5.848;2024-03-08T01:01:53;26.33;;;15.38;;
42018;SDS011;27703;51.980;5.848;2024-03-08T01:04:19;30.92;;;15.88;;
42018;SDS011;27703;51.980;5.848;2024-03-08T01:06:46;24.55;;;14.73;;
42018;SDS011;27703;51.980;5.848;2024-03-08T01:09:12;24.00;;;14.88;;
42018;SDS011;27703;51.980;5.848;2024-03-08T01:11:38;29.40;;;16.35;;
42018;SDS011;27703;51.980;5.848;2024-03-08T01:14:03;23.95;;;15.25;;
42018;SDS011;27703;51.980;5.848;2024-03-08T01:16:29;24.52;;;16.02;;
42018;SDS011;27703;51.980;5.848;2024-03-08T01:18:54;24.25;;;14.77;;
42018;SDS011;27703;51.980;5.848;2024-03-08T01:21:20;25.40;;;15.95;;
42018;SDS011;27703;51.980;5.848;2024-03-08T01:23:47;23.63;;;14.68;;
42018;SDS011;27703;51.980;5.848;2024-03-08T01:26:12;23.30;;;14.48;;
42018;SDS011;27703;51.980;5.848;2024-03-08T01:28:40;25.70;;;14.57;;
42018;SDS011;27703;51.980;5.848;2024-03-08T01:31:05;23.50;;;15.40;;
42018;SDS011;27703;51.980;5.848;2024-03-08T01:33:31;23.75;;;15.00;;
42018;SDS011;27703;51.980;5.848;2024-03-08T01:35:57;24.88;;;15.40;;
42018;SDS011;27703;51.980;5.848;2024-03-08T01:38:23;24.77;;;16.52;;
42018;SDS011;27703;51.980;5.848;2024-03-08T01:40:49;26.13;;;17.38;;
42018;SDS011;27703;51.980;5.848;2024-03-08T01:43:25;23.92;;;15.55;;
42018;SDS011;27703;51.980;5.848;2024-03-08T01:45:53;23.50;;;14.18;;
42018;SDS011;27703;51.980;5.848;2024-03-08T01:48:22;24.00;;;15.43;;
42018;SDS011;27703;51.980;5.848;2024-03-08T01:50:49;23.77;;;16.17;;
42018;SDS011;27703;51.980;5.848;2024-03-08T01:53:16;23.88;;;15.18;;
42018;SDS011;27703;51.980;5.848;2024-03-08T01:55:42;22.05;;;14.38;;
42018;SDS011;27703;51.980;5.848;2024-03-08T01:58:11;27.48;;;15.93;;
42018;SDS011;27703;51.980;5.848;2024-03-08T02:00:40;27.52;;;16.27;;
42018;SDS011;27703;51.980;5.848;2024-03-08T02:03:08;23.52;;;15.13;;
42018;SDS011;27703;51.980;5.848;2024-03-08T02:05:34;24.10;;;16.98;;
42018;SDS011;27703;51.980;5.848;2024-03-08T02:08:01;25.02;;;17.30;;
42018;SDS011;27703;51.980;5.848;2024-03-08T02:10:27;24.23;;;16.35;;
42018;SDS011;27703;51.980;5.848;2024-03-08T02:12:53;21.45;;;15.13;;
42018;SDS011;27703;51.980;5.848;2024-03-08T02:15:20;24.77;;;15.68;;
42018;SDS011;27703;51.980;5.848;2024-03-08T02:17:46;23.98;;;16.27;;
42018;SDS011;27703;51.980;5.848;2024-03-08T02:20:12;22.52;;;15.60;;
42018;SDS011;27703;51.980;5.848;2024-03-08T02:22:38;25.15;;;16.92;;
42018;SDS011;27703;51.980;5.848;2024-03-08T02:25:04;23.35;;;16.73;;
42018;SDS011;27703;51.980;5.848;2024-03-08T02:27:30;27.67;;;18.15;;
42018;SDS011;27703;51.980;5.848;2024-03-08T02:29:56;25.88;;;17.92;;
42018;SDS011;27703;51.980;5.848;2024-03-08T02:32:25;27.65;;;17.15;;
42018;SDS011;27703;51.980;5.848;2024-03-08T02:34:51;27.27;;;17.50;;
42018;SDS011;27703;51.980;5.848;2024-03-08T02:37:21;28.40;;;18.30;;
42018;SDS011;27703;51.980;5.848;2024-03-08T02:39:46;28.70;;;17.90;;
42018;SDS011;27703;51.980;5.848;2024-03-08T02:42:12;27.55;;;18.17;;
42018;SDS011;27703;51.980;5.848;2024-03-08T02:44:38;29.77;;;18.20;;
42018;SDS011;27703;51.980;5.848;2024-03-08T02:47:09;29.50;;;17.30;;
42018;SDS011;27703;51.980;5.848;2024-03-08T02:49:35;23.67;;;16.05;;
42018;SDS011;27703;51.980;5.848;2024-03-08T02:52:02;25.20;;;16.73;;
42018;SDS011;27703;51.980;5.848;2024-03-08T02:54:29;22.73;;;14.82;;
42018;SDS011;27703;51.980;5.848;2024-03-08T02:56:54;24.52;;;16.02;;
42018;SDS011;27703;51.980;5.848;2024-03-08T02:59:20;26.85;;;17.52;;
42018;SDS011;27703;51.980;5.848;2024-03-08T03:01:45;30.63;;;18.65;;
42018;SDS011;27703;51.980;5.848;2024-03-08T03:04:11;28.92;;;19.27;;
42018;SDS011;27703;51.980;5.848;2024-03-08T03:06:36;26.83;;;17.95;;
42018;SDS011;27703;51.980;5.848;2024-03-08T03:09:02;27.63;;;17.75;;
42018;SDS011;27703;51.980;5.848;2024-03-08T03:11:28;29.10;;;19.35;;
42018;SDS011;27703;51.980;5.848;2024-03-08T03:13:54;27.20;;;17.88;;
42018;SDS011;27703;51.980;5.848;2024-03-08T03:16:20;28.45;;;18.42;;
42018;SDS011;27703;51.980;5.848;2024-03-08T03:18:46;23.77;;;16.90;;
42018;SDS011;27703;51.980;5.848;2024-03-08T03:21:13;25.35;;;16.52;;
42018;SDS011;27703;51.980;5.848;2024-03-08T03:23:39;24.77;;;16.52;;
42018;SDS011;27703;51.980;5.848;2024-03-08T03:26:06;22.83;;;15.45;;
42018;SDS011;27703;51.980;5.848;2024-03-08T03:28:37;22.90;;;16.95;;
42018;SDS011;27703;51.980;5.848;2024-03-08T03:31:04;26.85;;;17.70;;
42018;SDS011;27703;51.980;5.848;2024-03-08T03:33:33;32.63;;;19.90;;
42018;SDS011;27703;51.980;5.848;2024-03-08T03:36:02;27.75;;;16.83;;
42018;SDS011;27703;51.980;5.848;2024-03-08T03:38:30;26.55;;;18.10;;
42018;SDS011;27703;51.980;5.848;2024-03-08T03:40:55;27.13;;;18.83;;
42018;SDS011;27703;51.980;5.848;2024-03-08T03:43:22;25.45;;;17.40;;
42018;SDS011;27703;51.980;5.848;2024-03-08T03:45:48;24.65;;;17.95;;
42018;SDS011;27703;51.980;5.848;2024-03-08T03:48:14;28.58;;;17.60;;
42018;SDS011;27703;51.980;5.848;2024-03-08T03:50:39;23.45;;;16.63;;
42018;SDS011;27703;51.980;5.848;2024-03-08T03:53:05;25.83;;;17.42;;
42018;SDS011;27703;51.980;5.848;2024-03-08T03:55:34;26.15;;;17.20;;
42018;SDS011;27703;51.980;5.848;2024-03-08T03:58:00;25.73;;;16.58;;
42018;SDS011;27703;51.980;5.848;2024-03-08T04:00:26;24.33;;;16.13;;
42018;SDS011;27703;51.980;5.848;2024-03-08T04:02:52;24.95;;;17.23;;
42018;SDS011;27703;51.980;5.848;2024-03-08T04:05:18;27.08;;;17.60;;
42018;SDS011;27703;51.980;5.848;2024-03-08T04:07:44;26.33;;;17.08;;
42018;SDS011;27703;51.980;5.848;2024-03-08T04:10:10;23.50;;;17.48;;
42018;SDS011;27703;51.980;5.848;2024-03-08T04:12:37;24.60;;;16.75;;
42018;SDS011;27703;51.980;5.848;2024-03-08T04:15:03;25.42;;;18.02;;
42018;SDS011;27703;51.980;5.848;2024-03-08T04:17:32;28.55;;;19.20;;
42018;SDS011;27703;51.980;5.848;2024-03-08T04:20:02;29.40;;;18.30;;
42018;SDS011;27703;51.980;5.848;2024-03-08T04:22:35;27.88;;;18.75;;
42018;SDS011;27703;51.980;5.848;2024-03-08T04:25:02;28.02;;;16.23;;
42018;SDS011;27703;51.980;5.848;2024-03-08T04:27:28;23.75;;;17.20;;
42018;SDS011;27703;51.980;5.848;2024-03-08T04:29:54;26.77;;;17.30;;
42018;SDS011;27703;51.980;5.848;2024-03-08T04:32:19;27.95;;;17.80;;
42018;SDS011;27703;51.980;5.848;2024-03-08T04:34:45;26.63;;;16.58;;
42018;SDS011;27703;51.980;5.848;2024-03-08T04:37:10;24.98;;;17.15;;
42018;SDS011;27703;51.980;5.848;2024-03-08T04:39:38;24.73;;;16.77;;
42018;SDS011;27703;51.980;5.848;2024-03-08T04:42:04;25.50;;;17.35;;
42018;SDS011;27703;51.980;5.848;2024-03-08T04:44:35;29.27;;;18.23;;
42018;SDS011;27703;51.980;5.848;2024-03-08T04:47:02;27.65;;;18.20;;
42018;SDS011;27703;51.980;5.848;2024-03-08T04:49:30;28.88;;;17.15;;
42018;SDS011;27703;51.980;5.848;2024-03-08T04:51:57;25.20;;;16.73;;
42018;SDS011;27703;51.980;5.848;2024-03-08T04:54:22;29.02;;;17.08;;
42018;SDS011;27703;51.980;5.848;2024-03-08T04:56:48;26.85;;;16.70;;
42018;SDS011;27703;51.980;5.848;2024-03-08T04:59:13;29.00;;;17.80;;
42018;SDS011;27703;51.980;5.848;2024-03-08T05:01:39;26.38;;;15.57;;
42018;SDS011;27703;51.980;5.848;2024-03-08T05:04:04;27.17;;;15.32;;
42018;SDS011;27703;51.980;5.848;2024-03-08T05:06:30;25.60;;;16.85;;
42018;SDS011;27703;51.980;5.848;2024-03-08T05:08:56;24.33;;;17.63;;
42018;SDS011;27703;51.980;5.848;2024-03-08T05:11:21;24.33;;;16.10;;
42018;SDS011;27703;51.980;5.848;2024-03-08T05:13:47;25.45;;;16.80;;
42018;SDS011;27703;51.980;5.848;2024-03-08T05:16:13;30.05;;;18.35;;
42018;SDS011;27703;51.980;5.848;2024-03-08T05:18:40;29.33;;;18.33;;
42018;SDS011;27703;51.980;5.848;2024-03-08T05:21:07;27.48;;;17.67;;
42018;SDS011;27703;51.980;5.848;2024-03-08T05:23:34;31.55;;;19.02;;
42018;SDS011;27703;51.980;5.848;2024-03-08T05:25:59;30.10;;;18.52;;
42018;SDS011;27703;51.980;5.848;2024-03-08T05:28:26;30.75;;;19.98;;
42018;SDS011;27703;51.980;5.848;2024-03-08T05:30:51;27.60;;;18.58;;
42018;SDS011;27703;51.980;5.848;2024-03-08T05:33:17;29.38;;;18.63;;
42018;SDS011;27703;51.980;5.848;2024-03-08T05:35:44;29.40;;;18.88;;
42018;SDS011;27703;51.980;5.848;2024-03-08T05:38:09;32.53;;;20.05;;
42018;SDS011;27703;51.980;5.848;2024-03-08T05:40:37;30.75;;;20.83;;
42018;SDS011;27703;51.980;5.848;2024-03-08T05:43:03;29.85;;;18.52;;
42018;SDS011;27703;51.980;5.848;2024-03-08T05:45:29;27.60;;;18.10;;
42018;SDS011;27703;51.980;5.848;2024-03-08T05:47:54;32.20;;;19.05;;
42018;SDS011;27703;51.980;5.848;2024-03-08T05:50:20;27.65;;;18.25;;
42018;SDS011;27703;51.980;5.848;2024-03-08T05:52:45;29.85;;;20.40;;
42018;SDS011;27703;51.980;5.848;2024-03-08T05:55:12;27.63;;;18.75;;
42018;SDS011;27703;51.980;5.848;2024-03-08T05:57:39;27.75;;;17.42;;
42018;SDS011;27703;51.980;5.848;2024-03-08T06:00:05;28.25;;;18.33;;
42018;SDS011;27703;51.980;5.848;2024-03-08T06:02:31;29.92;;;19.13;;
42018;SDS011;27703;51.980;5.848;2024-03-08T06:04:57;30.98;;;20.25;;
42018;SDS011;27703;51.980;5.848;2024-03-08T06:07:23;32.72;;;20.33;;
42018;SDS011;27703;51.980;5.848;2024-03-08T06:09:48;30.30;;;19.45;;
42018;SDS011;27703;51.980;5.848;2024-03-08T06:12:14;30.77;;;19.52;;
42018;SDS011;27703;51.980;5.848;2024-03-08T06:14:44;31.77;;;19.25;;
42018;SDS011;27703;51.980;5.848;2024-03-08T06:17:10;34.15;;;19.65;;
42018;SDS011;27703;51.980;5.848;2024-03-08T06:19:36;35.67;;;21.80;;
42018;SDS011;27703;51.980;5.848;2024-03-08T06:22:01;34.58;;;21.40;;
42018;SDS011;27703;51.980;5.848;2024-03-08T06:24:30;31.95;;;20.63;;
42018;SDS011;27703;51.980;5.848;2024-03-08T06:27:01;31.58;;;21.15;;
42018;SDS011;27703;51.980;5.848;2024-03-08T06:29:27;36.33;;;20.85;;
42018;SDS011;27703;51.980;5.848;2024-03-08T06:31:52;31.02;;;19.23;;
42018;SDS011;27703;51.980;5.848;2024-03-08T06:34:18;32.72;;;20.30;;
42018;SDS011;27703;51.980;5.848;2024-03-08T06:36:44;33.33;;;20.10;;
42018;SDS011;27703;51.980;5.848;2024-03-08T06:39:09;33.13;;;20.80;;
42018;SDS011;27703;51.980;5.848;2024-03-08T06:41:38;34.60;;;21.73;;
42018;SDS011;27703;51.980;5.848;2024-03-08T06:44:03;31.15;;;21.27;;
42018;SDS011;27703;51.980;5.848;2024-03-08T06:46:29;32.90;;;20.73;;
42018;SDS011;27703;51.980;5.848;2024-03-08T06:48:54;35.08;;;21.75;;
42018;SDS011;27703;51.980;5.848;2024-03-08T06:51:20;35.38;;;21.02;;
42018;SDS011;27703;51.980;5.848;2024-03-08T06:53:46;29.38;;;19.65;;
42018;SDS011;27703;51.980;5.848;2024-03-08T06:56:12;30.10;;;20.83;;
42018;SDS011;27703;51.980;5.848;2024-03-08T06:58:37;33.17;;;21.83;;
42018;SDS011;27703;51.980;5.848;2024-03-08T07:01:03;31.00;;;19.27;;
42018;SDS011;27703;51.980;5.848;2024-03-08T07:03:32;28.33;;;19.25;;
42018;SDS011;27703;51.980;5.848;2024-03-08T07:05:58;29.73;;;20.05;;
42018;SDS011;27703;51.980;5.848;2024-03-08T07:08:24;30.98;;;20.25;;
42018;SDS011;27703;51.980;5.848;2024-03-08T07:10:49;31.10;;;20.08;;
42018;SDS011;27703;51.980;5.848;2024-03-08T07:13:15;37.22;;;22.73;;
42018;SDS011;27703;51.980;5.848;2024-03-08T07:15:41;30.75;;;21.05;;
42018;SDS011;27703;51.980;5.848;2024-03-08T07:18:08;34.85;;;23.35;;
42018;SDS011;27703;51.980;5.848;2024-03-08T07:20:34;34.72;;;22.50;;
42018;SDS011;27703;51.980;5.848;2024-03-08T07:23:00;36.83;;;22.25;;
42018;SDS011;27703;51.980;5.848;2024-03-08T07:25:28;33.67;;;22.02;;
42018;SDS011;27703;51.980;5.848;2024-03-08T07:27:54;36.58;;;21.85;;
42018;SDS011;27703;51.980;5.848;2024-03-08T07:30:23;35.92;;;22.73;;
42018;SDS011;27703;51.980;5.848;2024-03-08T07:33:08;37.00;;;22.50;;
42018;SDS011;27703;51.980;5.848;2024-03-08T07:35:36;38.30;;;24.63;;
42018;SDS011;27703;51.980;5.848;2024-03-08T07:38:03;39.65;;;24.17;;
42018;SDS011;27703;51.980;5.848;2024-03-08T07:40:30;37.55;;;23.50;;
42018;SDS011;27703;51.980;5.848;2024-03-08T07:42:56;32.00;;;21.73;;
42018;SDS011;27703;51.980;5.848;2024-03-08T07:45:23;38.70;;;24.02;;
42018;SDS011;27703;51.980;5.848;2024-03-08T07:47:49;35.72;;;23.10;;
42018;SDS011;27703;51.980;5.848;2024-03-08T07:50:15;37.97;;;22.60;;
42018;SDS011;27703;51.980;5.848;2024-03-08T07:52:41;34.50;;;23.52;;
42018;SDS011;27703;51.980;5.848;2024-03-08T07:55:07;34.88;;;23.42;;
42018;SDS011;27703;51.980;5.848;2024-03-08T07:57:33;37.53;;;23.30;;
42018;SDS011;27703;51.980;5.848;2024-03-08T07:59:59;38.97;;;24.98;;
42018;SDS011;27703;51.980;5.848;2024-03-08T08:02:24;37.72;;;24.15;;
42018;SDS011;27703;51.980;5.848;2024-03-08T08:04:50;40.83;;;26.98;;
42018;SDS011;27703;51.980;5.848;2024-03-08T08:07:16;42.85;;;25.02;;
42018;SDS011;27703;51.980;5.848;2024-03-08T08:09:41;36.53;;;23.85;;
42018;SDS011;27703;51.980;5.848;2024-03-08T08:12:08;35.42;;;23.98;;
42018;SDS011;27703;51.980;5.848;2024-03-08T08:14:37;35.95;;;23.67;;
42018;SDS011;27703;51.980;5.848;2024-03-08T08:17:03;36.58;;;24.38;;
42018;SDS011;27703;51.980;5.848;2024-03-08T08:19:29;34.17;;;22.20;;
42018;SDS011;27703;51.980;5.848;2024-03-08T08:21:56;38.47;;;23.55;;
42018;SDS011;27703;51.980;5.848;2024-03-08T08:24:22;36.83;;;24.55;;
42018;SDS011;27703;51.980;5.848;2024-03-08T08:26:48;36.90;;;23.25;;
42018;SDS011;27703;51.980;5.848;2024-03-08T08:29:13;32.33;;;22.27;;
42018;SDS011;27703;51.980;5.848;2024-03-08T08:31:39;35.33;;;23.70;;
42018;SDS011;27703;51.980;5.848;2024-03-08T08:34:05;35.33;;;23.20;;
42018;SDS011;27703;51.980;5.848;2024-03-08T08:36:32;38.42;;;24.42;;
42018;SDS011;27703;51.980;5.848;2024-03-08T08:38:58;35.88;;;22.55;;
42018;SDS011;27703;51.980;5.848;2024-03-08T08:41:24;41.45;;;25.30;;
42018;SDS011;27703;51.980;5.848;2024-03-08T08:43:50;35.10;;;23.45;;
42018;SDS011;27703;51.980;5.848;2024-03-08T08:46:19;37.72;;;24.30;;
42018;SDS011;27703;51.980;5.848;2024-03-08T08:48:44;34.95;;;24.00;;
42018;SDS011;27703;51.980;5.848;2024-03-08T08:51:10;35.70;;;23.30;;
42018;SDS011;27703;51.980;5.848;2024-03-08T08:53:40;33.08;;;23.23;;
42018;SDS011;27703;51.980;5.848;2024-03-08T08:56:08;37.30;;;24.00;;
42018;SDS011;27703;51.980;5.848;2024-03-08T08:58:37;37.30;;;23.42;;
42018;SDS011;27703;51.980;5.848;2024-03-08T09:01:12;36.72;;;22.92;;
42018;SDS011;27703;51.980;5.848;2024-03-08T09:03:38;34.08;;;21.38;;
42018;SDS011;27703;51.980;5.848;2024-03-08T09:06:07;34.92;;;23.08;;
42018;SDS011;27703;51.980;5.848;2024-03-08T09:08:36;37.38;;;24.83;;
42018;SDS011;27703;51.980;5.848;2024-03-08T09:11:02;34.33;;;22.00;;
42018;SDS011;27703;51.980;5.848;2024-03-08T09:13:27;34.67;;;22.63;;
42018;SDS011;27703;51.980;5.848;2024-03-08T09:15:53;31.40;;;22.50;;
42018;SDS011;27703;51.980;5.848;2024-03-08T09:18:18;30.52;;;21.17;;
42018;SDS011;27703;51.980;5.848;2024-03-08T09:20:44;35.13;;;23.30;;
42018;SDS011;27703;51.980;5.848;2024-03-08T09:23:10;32.35;;;21.63;;
42018;SDS011;27703;51.980;5.848;2024-03-08T09:25:36;31.90;;;21.40;;
42018;SDS011;27703;51.980;5.848;2024-03-08T09:28:02;41.22;;;23.58;;
42018;SDS011;27703;51.980;5.848;2024-03-08T09:30:28;33.83;;;24.23;;
42018;SDS011;27703;51.980;5.848;2024-03-08T09:32:54;33.30;;;23.00;;
42018;SDS011;27703;51.980;5.848;2024-03-08T09:35:19;40.22;;;26.23;;
42018;SDS011;27703;51.980;5.848;2024-03-08T09:37:45;36.95;;;22.92;;
42018;SDS011;27703;51.980;5.848;2024-03-08T09:40:12;33.58;;;22.60;;
42018;SDS011;27703;51.980;5.848;2024-03-08T09:42:40;35.65;;;22.42;;
42018;SDS011;27703;51.980;5.848;2024-03-08T09:45:10;33.30;;;22.90;;
42018;SDS011;27703;51.980;5.848;2024-03-08T09:47:39;32.22;;;21.25;;
42018;SDS011;27703;51.980;5.848;2024-03-08T09:50:06;32.05;;;21.20;;
42018;SDS011;27703;51.980;5.848;2024-03-08T09:52:38;37.20;;;22.60;;
42018;SDS011;27703;51.980;5.848;2024-03-08T09:55:05;34.00;;;23.02;;
42018;SDS011;27703;51.980;5.848;2024-03-08T09:57:32;31.52;;;20.55;;
42018;SDS011;27703;51.980;5.848;2024-03-08T09:59:59;32.75;;;20.20;;
42018;SDS011;27703;51.980;5.848;2024-03-08T10:02:24;29.85;;;20.52;;
42018;SDS011;27703;51.980;5.848;2024-03-08T10:04:51;36.28;;;22.60;;
42018;SDS011;27703;51.980;5.848;2024-03-08T10:07:18;37.30;;;22.88;;
42018;SDS011;27703;51.980;5.848;2024-03-08T10:09:43;29.67;;;21.23;;
42018;SDS011;27703;51.980;5.848;2024-03-08T10:12:15;28.88;;;20.23;;
42018;SDS011;27703;51.980;5.848;2024-03-08T10:14:41;30.40;;;20.88;;
42018;SDS011;27703;51.980;5.848;2024-03-08T10:17:07;32.15;;;21.25;;
42018;SDS011;27703;51.980;5.848;2024-03-08T10:19:33;34.30;;;21.17;;
42018;SDS011;27703;51.980;5.848;2024-03-08T10:21:59;30.23;;;20.63;;
42018;SDS011;27703;51.980;5.848;2024-03-08T10:24:25;31.17;;;21.17;;
42018;SDS011;27703;51.980;5.848;2024-03-08T10:27:00;28.63;;;18.73;;
42018;SDS011;27703;51.980;5.848;2024-03-08T10:29:29;33.65;;;19.83;;
42018;SDS011;27703;51.980;5.848;2024-03-08T10:31:56;27.30;;;19.42;;
42018;SDS011;27703;51.980;5.848;2024-03-08T10:34:22;29.08;;;19.85;;
42018;SDS011;27703;51.980;5.848;2024-03-08T10:36:49;30.63;;;19.35;;
42018;SDS011;27703;51.980;5.848;2024-03-08T10:41:44;27.83;;;18.33;;
42018;SDS011;27703;51.980;5.848;2024-03-08T10:47:00;26.85;;;19.33;;
42018;SDS011;27703;51.980;5.848;2024-03-08T10:52:20;24.65;;;16.98;;
42018;SDS011;27703;51.980;5.848;2024-03-08T10:54:45;26.20;;;17.27;;
42018;SDS011;27703;51.980;5.848;2024-03-08T10:57:13;27.05;;;17.65;;
42018;SDS011;27703;51.980;5.848;2024-03-08T10:59:40;23.95;;;17.33;;
42018;SDS011;27703;51.980;5.848;2024-03-08T11:02:08;22.77;;;16.42;;
42018;SDS011;27703;51.980;5.848;2024-03-08T11:04:37;25.05;;;16.48;;
42018;SDS011;27703;51.980;5.848;2024-03-08T11:07:03;24.67;;;17.15;;
42018;SDS011;27703;51.980;5.848;2024-03-08T11:09:32;22.75;;;17.02;;
42018;SDS011;27703;51.980;5.848;2024-03-08T11:14:59;22.20;;;17.35;;
42018;SDS011;27703;51.980;5.848;2024-03-08T11:19:56;23.08;;;16.73;;
42018;SDS011;27703;51.980;5.848;2024-03-08T11:22:33;21.48;;;15.02;;
42018;SDS011;27703;51.980;5.848;2024-03-08T11:25:02;18.88;;;14.27;;
42018;SDS011;27703;51.980;5.848;2024-03-08T11:27:33;22.13;;;15.68;;
42018;SDS011;27703;51.980;5.848;2024-03-08T11:30:02;22.10;;;16.10;;
42018;SDS011;27703;51.980;5.848;2024-03-08T11:32:36;22.30;;;15.65;;
42018;SDS011;27703;51.980;5.848;2024-03-08T11:35:17;23.40;;;15.05;;
42018;SDS011;27703;51.980;5.848;2024-03-08T11:37:45;18.88;;;14.25;;
42018;SDS011;27703;51.980;5.848;2024-03-08T11:40:13;21.27;;;14.82;;
42018;SDS011;27703;51.980;5.848;2024-03-08T11:42:43;19.33;;;14.80;;
42018;SDS011;27703;51.980;5.848;2024-03-08T11:45:13;23.30;;;14.18;;
42018;SDS011;27703;51.980;5.848;2024-03-08T11:47:42;22.17;;;16.08;;
42018;SDS011;27703;51.980;5.848;2024-03-08T11:50:11;20.67;;;14.45;;
42018;SDS011;27703;51.980;5.848;2024-03-08T11:52:37;19.10;;;14.50;;
42018;SDS011;27703;51.980;5.848;2024-03-08T11:55:03;19.52;;;14.15;;
42018;SDS011;27703;51.980;5.848;2024-03-08T11:57:30;19.00;;;13.70;;
42018;SDS011;27703;51.980;5.848;2024-03-08T11:59:57;20.70;;;14.60;;
42018;SDS011;27703;51.980;5.848;2024-03-08T12:02:31;19.40;;;14.02;;
42018;SDS011;27703;51.980;5.848;2024-03-08T12:04:57;18.63;;;13.50;;
42018;SDS011;27703;51.980;5.848;2024-03-08T12:07:24;18.83;;;14.13;;
42018;SDS011;27703;51.980;5.848;2024-03-08T12:12:46;17.73;;;13.32;;
42018;SDS011;27703;51.980;5.848;2024-03-08T12:15:15;20.98;;;13.43;;
42018;SDS011;27703;51.980;5.848;2024-03-08T12:17:42;18.52;;;13.85;;
42018;SDS011;27703;51.980;5.848;2024-03-08T12:20:42;19.25;;;13.20;;
42018;SDS011;27703;51.980;5.848;2024-03-08T12:23:01;21.33;;;13.73;;
42018;SDS011;27703;51.980;5.848;2024-03-08T12:25:27;18.55;;;14.10;;
42018;SDS011;27703;51.980;5.848;2024-03-08T12:28:08;19.20;;;13.95;;
42018;SDS011;27703;51.980;5.848;2024-03-08T12:30:45;17.92;;;13.73;;
42018;SDS011;27703;51.980;5.848;2024-03-08T12:33:13;25.00;;;15.88;;
42018;SDS011;27703;51.980;5.848;2024-03-08T12:35:38;18.45;;;13.80;;
42018;SDS011;27703;51.980;5.848;2024-03-08T12:38:04;21.58;;;15.73;;
42018;SDS011;27703;51.980;5.848;2024-03-08T12:40:32;23.15;;;15.57;;
42018;SDS011;27703;51.980;5.848;2024-03-08T12:42:59;20.98;;;14.18;;
42018;SDS011;27703;51.980;5.848;2024-03-08T12:45:26;19.27;;;14.40;;
42018;SDS011;27703;51.980;5.848;2024-03-08T12:47:54;21.27;;;14.52;;
42018;SDS011;27703;51.980;5.848;2024-03-08T12:50:21;21.48;;;14.80;;
42018;SDS011;27703;51.980;5.848;2024-03-08T12:52:47;25.70;;;16.50;;
42018;SDS011;27703;51.980;5.848;2024-03-08T12:55:17;20.10;;;15.02;;
42018;SDS011;27703;51.980;5.848;2024-03-08T12:57:43;20.75;;;14.65;;
42018;SDS011;27703;51.980;5.848;2024-03-08T13:00:10;19.13;;;14.43;;
42018;SDS011;27703;51.980;5.848;2024-03-08T13:02:43;19.40;;;14.65;;
42018;SDS011;27703;51.980;5.848;2024-03-08T13:05:12;20.08;;;14.70;;
42018;SDS011;27703;51.980;5.848;2024-03-08T13:07:39;22.23;;;14.95;;
42018;SDS011;27703;51.980;5.848;2024-03-08T13:10:11;24.75;;;16.65;;
42018;SDS011;27703;51.980;5.848;2024-03-08T13:12:39;22.13;;;15.57;;
42018;SDS011;27703;51.980;5.848;2024-03-08T13:15:08;21.92;;;15.13;;
42018;SDS011;27703;51.980;5.848;2024-03-08T13:17:36;24.35;;;15.40;;
42018;SDS011;27703;51.980;5.848;2024-03-08T13:20:05;19.63;;;14.23;;
42018;SDS011;27703;51.980;5.848;2024-03-08T13:22:32;20.55;;;14.20;;
42018;SDS011;27703;51.980;5.848;2024-03-08T13:24:58;19.05;;;14.90;;
42018;SDS011;27703;51.980;5.848;2024-03-08T13:27:25;22.30;;;15.93;;
42018;SDS011;27703;51.980;5.848;2024-03-08T13:29:54;21.20;;;15.65;;
42018;SDS011;27703;51.980;5.848;2024-03-08T13:32:20;17.27;;;13.23;;
42018;SDS011;27703;51.980;5.848;2024-03-08T13:34:47;18.27;;;13.68;;
42018;SDS011;27703;51.980;5.848;2024-03-08T13:37:12;18.63;;;14.80;;
42018;SDS011;27703;51.980;5.848;2024-03-08T13:39:41;20.75;;;13.95;;
42018;SDS011;27703;51.980;5.848;2024-03-08T13:42:08;20.65;;;15.45;;
42018;SDS011;27703;51.980;5.848;2024-03-08T13:44:44;21.02;;;14.82;;
42018;SDS011;27703;51.980;5.848;2024-03-08T13:47:16;19.88;;;14.60;;
42018;SDS011;27703;51.980;5.848;2024-03-08T13:49:42;23.25;;;16.35;;
42018;SDS011;27703;51.980;5.848;2024-03-08T13:52:11;20.13;;;15.57;;
42018;SDS011;27703;51.980;5.848;2024-03-08T13:54:41;22.30;;;15.52;;
42018;SDS011;27703;51.980;5.848;2024-03-08T13:57:07;22.92;;;15.85;;
42018;SDS011;27703;51.980;5.848;2024-03-08T13:59:33;19.75;;;14.63;;
42018;SDS011;27703;51.980;5.848;2024-03-08T14:02:00;18.42;;;13.45;;
42018;SDS011;27703;51.980;5.848;2024-03-08T14:04:29;21.52;;;15.23;;
42018;SDS011;27703;51.980;5.848;2024-03-08T14:06:55;20.75;;;15.48;;
42018;SDS011;27703;51.980;5.848;2024-03-08T14:09:28;20.15;;;14.00;;
42018;SDS011;27703;51.980;5.848;2024-03-08T14:11:54;16.80;;;12.43;;
42018;SDS011;27703;51.980;5.848;2024-03-08T14:14:20;20.92;;;15.93;;
42018;SDS011;27703;51.980;5.848;2024-03-08T14:16:48;23.20;;;15.63;;
42018;SDS011;27703;51.980;5.848;2024-03-08T14:19:18;24.25;;;15.95;;
42018;SDS011;27703;51.980;5.848;2024-03-08T14:21:44;21.55;;;15.20;;
42018;SDS011;27703;51.980;5.848;2024-03-08T14:24:09;20.27;;;14.88;;
42018;SDS011;27703;51.980;5.848;2024-03-08T14:26:35;18.92;;;13.80;;
42018;SDS011;27703;51.980;5.848;2024-03-08T14:29:03;20.33;;;14.20;;
42018;SDS011;27703;51.980;5.848;2024-03-08T14:31:30;16.35;;;12.90;;
42018;SDS011;27703;51.980;5.848;2024-03-08T14:33:56;19.85;;;15.07;;
42018;SDS011;27703;51.980;5.848;2024-03-08T14:36:23;19.77;;;14.50;;